sensor_id;sensor_type;location;lat;lon;timestamp;P1;durP1;ratioP1;P2;durP2;ratioP2
60582;SDS011;46415;47.536;19.066;2022-09-09T00:04:33;1.87;;;1.37;;
60582;SDS011;46415;47.536;19.066;2022-09-09T00:10:48;1.12;;;1.12;;
60582;SDS011;46415;47.536;19.066;2022-09-09T00:14:01;1.27;;;1.17;;
60582;SDS011;46415;47.536;19.066;2022-09-09T00:17:30;1.40;;;1.30;;
60582;SDS011;46415;47.536;19.066;2022-09-09T00:20:40;1.45;;;1.35;;
60582;SDS011;46415;47.536;19.066;2022-09-09T00:23:53;1.65;;;1.50;;
60582;SDS011;46415;47.536;19.066;2022-09-09T00:27:01;1.20;;;1.20;;
60582;SDS011;46415;47.536;19.066;2022-09-09T00:33:24;1.30;;;1.30;;
60582;SDS011;46415;47.536;19.066;2022-09-09T00:36:29;1.30;;;1.20;;
60582;SDS011;46415;47.536;19.066;2022-09-09T00:39:42;1.40;;;1.23;;
60582;SDS011;46415;47.536;19.066;2022-09-09T00:42:52;1.37;;;1.35;;
60582;SDS011;46415;47.536;19.066;2022-09-09T00:46:08;1.50;;;1.40;;
60582;SDS011;46415;47.536;19.066;2022-09-09T00:49:39;1.27;;;1.20;;
60582;SDS011;46415;47.536;19.066;2022-09-09T00:56:18;1.55;;;1.45;;
60582;SDS011;46415;47.536;19.066;2022-09-09T00:59:32;1.23;;;1.20;;
60582;SDS011;46415;47.536;19.066;2022-09-09T01:09:38;1.87;;;1.77;;
60582;SDS011;46415;47.536;19.066;2022-09-09T01:12:58;1.52;;;1.42;;
60582;SDS011;46415;47.536;19.066;2022-09-09T01:16:08;2.80;;;2.03;;
60582;SDS011;46415;47.536;19.066;2022-09-09T01:19:20;2.35;;;2.20;;
60582;SDS011;46415;47.536;19.066;2022-09-09T01:26:18;1.77;;;1.67;;
60582;SDS011;46415;47.536;19.066;2022-09-09T01:29:27;2.20;;;1.80;;
60582;SDS011;46415;47.536;19.066;2022-09-09T01:35:51;2.30;;;2.10;;
60582;SDS011;46415;47.536;19.066;2022-09-09T01:38:59;3.35;;;1.90;;
60582;SDS011;46415;47.536;19.066;2022-09-09T01:42:03;2.03;;;1.92;;
60582;SDS011;46415;47.536;19.066;2022-09-09T01:45:08;2.00;;;1.90;;
60582;SDS011;46415;47.536;19.066;2022-09-09T01:48:12;1.90;;;1.80;;
60582;SDS011;46415;47.536;19.066;2022-09-09T01:51:15;1.80;;;1.70;;
60582;SDS011;46415;47.536;19.066;2022-09-09T01:54:19;1.80;;;1.70;;
60582;SDS011;46415;47.536;19.066;2022-09-09T01:57:25;2.37;;;1.90;;
60582;SDS011;46415;47.536;19.066;2022-09-09T02:00:34;1.65;;;1.55;;
60582;SDS011;46415;47.536;19.066;2022-09-09T02:06:49;1.90;;;1.80;;
60582;SDS011;46415;47.536;19.066;2022-09-09T02:09:59;1.85;;;1.75;;
60582;SDS011;46415;47.536;19.066;2022-09-09T02:13:19;2.00;;;1.90;;
60582;SDS011;46415;47.536;19.066;2022-09-09T02:16:26;2.35;;;2.15;;
60582;SDS011;46415;47.536;19.066;2022-09-09T02:19:36;2.20;;;2.10;;
60582;SDS011;46415;47.536;19.066;2022-09-09T02:22:46;2.58;;;2.10;;
60582;SDS011;46415;47.536;19.066;2022-09-09T02:25:52;2.80;;;2.60;;
60582;SDS011;46415;47.536;19.066;2022-09-09T02:28:58;2.42;;;1.98;;
60582;SDS011;46415;47.536;19.066;2022-09-09T02:32:05;2.60;;;2.40;;
60582;SDS011;46415;47.536;19.066;2022-09-09T02:35:14;2.50;;;2.40;;
60582;SDS011;46415;47.536;19.066;2022-09-09T02:38:20;2.62;;;2.42;;
60582;SDS011;46415;47.536;19.066;2022-09-09T02:41:28;2.78;;;2.58;;
60582;SDS011;46415;47.536;19.066;2022-09-09T02:44:34;2.37;;;2.28;;
60582;SDS011;46415;47.536;19.066;2022-09-09T02:51:13;2.75;;;2.58;;
60582;SDS011;46415;47.536;19.066;2022-09-09T02:54:28;2.90;;;2.70;;
60582;SDS011;46415;47.536;19.066;2022-09-09T02:57:34;3.17;;;2.97;;
60582;SDS011;46415;47.536;19.066;2022-09-09T03:00:39;2.78;;;2.58;;
60582;SDS011;46415;47.536;19.066;2022-09-09T03:03:43;3.00;;;2.80;;
60582;SDS011;46415;47.536;19.066;2022-09-09T03:06:47;2.72;;;2.53;;
60582;SDS011;46415;47.536;19.066;2022-09-09T03:09:50;3.10;;;2.85;;
60582;SDS011;46415;47.536;19.066;2022-09-09T03:12:53;3.00;;;2.70;;
60582;SDS011;46415;47.536;19.066;2022-09-09T03:15:56;3.12;;;2.92;;
60582;SDS011;46415;47.536;19.066;2022-09-09T03:19:00;2.90;;;2.70;;
60582;SDS011;46415;47.536;19.066;2022-09-09T03:22:05;3.03;;;2.83;;
60582;SDS011;46415;47.536;19.066;2022-09-09T03:25:09;2.85;;;2.65;;
60582;SDS011;46415;47.536;19.066;2022-09-09T03:28:12;3.00;;;2.80;;
60582;SDS011;46415;47.536;19.066;2022-09-09T03:31:19;2.75;;;2.55;;
60582;SDS011;46415;47.536;19.066;2022-09-09T03:34:22;3.10;;;2.85;;
60582;SDS011;46415;47.536;19.066;2022-09-09T03:37:25;3.17;;;2.97;;
60582;SDS011;46415;47.536;19.066;2022-09-09T03:40:29;3.20;;;3.00;;
60582;SDS011;46415;47.536;19.066;2022-09-09T03:43:33;2.95;;;2.75;;
60582;SDS011;46415;47.536;19.066;2022-09-09T03:46:36;3.08;;;2.80;;
60582;SDS011;46415;47.536;19.066;2022-09-09T03:49:40;2.97;;;2.78;;
60582;SDS011;46415;47.536;19.066;2022-09-09T03:52:43;3.15;;;2.85;;
60582;SDS011;46415;47.536;19.066;2022-09-09T03:55:51;2.55;;;2.35;;
60582;SDS011;46415;47.536;19.066;2022-09-09T03:58:57;2.50;;;2.40;;
60582;SDS011;46415;47.536;19.066;2022-09-09T04:02:01;2.80;;;2.67;;
60582;SDS011;46415;47.536;19.066;2022-09-09T04:05:04;2.92;;;2.72;;
60582;SDS011;46415;47.536;19.066;2022-09-09T04:08:09;2.72;;;2.53;;
60582;SDS011;46415;47.536;19.066;2022-09-09T04:11:12;2.80;;;2.60;;
60582;SDS011;46415;47.536;19.066;2022-09-09T04:14:15;2.55;;;2.37;;
60582;SDS011;46415;47.536;19.066;2022-09-09T04:17:19;2.90;;;2.75;;
60582;SDS011;46415;47.536;19.066;2022-09-09T04:20:21;2.75;;;2.55;;
60582;SDS011;46415;47.536;19.066;2022-09-09T04:23:26;2.70;;;2.50;;
60582;SDS011;46415;47.536;19.066;2022-09-09T04:26:31;2.30;;;2.20;;
60582;SDS011;46415;47.536;19.066;2022-09-09T04:29:35;2.37;;;2.22;;
60582;SDS011;46415;47.536;19.066;2022-09-09T04:32:37;3.00;;;2.80;;
60582;SDS011;46415;47.536;19.066;2022-09-09T04:35:48;2.92;;;2.72;;
60582;SDS011;46415;47.536;19.066;2022-09-09T04:38:53;3.00;;;2.80;;
60582;SDS011;46415;47.536;19.066;2022-09-09T04:41:56;2.78;;;2.58;;
60582;SDS011;46415;47.536;19.066;2022-09-09T04:44:58;3.00;;;2.80;;
60582;SDS011;46415;47.536;19.066;2022-09-09T04:48:01;2.60;;;2.50;;
60582;SDS011;46415;47.536;19.066;2022-09-09T04:51:05;2.53;;;2.33;;
60582;SDS011;46415;47.536;19.066;2022-09-09T04:54:09;2.50;;;2.40;;
60582;SDS011;46415;47.536;19.066;2022-09-09T04:57:14;2.47;;;2.37;;
60582;SDS011;46415;47.536;19.066;2022-09-09T05:00:25;2.50;;;2.40;;
60582;SDS011;46415;47.536;19.066;2022-09-09T05:03:29;2.97;;;2.28;;
60582;SDS011;46415;47.536;19.066;2022-09-09T05:06:32;2.95;;;2.75;;
60582;SDS011;46415;47.536;19.066;2022-09-09T05:09:34;3.00;;;2.80;;
60582;SDS011;46415;47.536;19.066;2022-09-09T05:12:38;2.70;;;2.50;;
60582;SDS011;46415;47.536;19.066;2022-09-09T05:15:41;3.10;;;2.90;;
60582;SDS011;46415;47.536;19.066;2022-09-09T05:18:46;3.83;;;2.45;;
60582;SDS011;46415;47.536;19.066;2022-09-09T05:21:48;2.62;;;2.42;;
60582;SDS011;46415;47.536;19.066;2022-09-09T05:24:52;2.55;;;2.37;;
60582;SDS011;46415;47.536;19.066;2022-09-09T05:27:56;2.50;;;2.30;;
60582;SDS011;46415;47.536;19.066;2022-09-09T05:34:10;2.95;;;2.67;;
60582;SDS011;46415;47.536;19.066;2022-09-09T05:37:16;2.72;;;2.53;;
60582;SDS011;46415;47.536;19.066;2022-09-09T05:40:19;2.80;;;2.60;;
60582;SDS011;46415;47.536;19.066;2022-09-09T05:43:24;2.60;;;2.45;;
60582;SDS011;46415;47.536;19.066;2022-09-09T05:46:28;2.35;;;2.25;;
60582;SDS011;46415;47.536;19.066;2022-09-09T05:49:30;2.50;;;2.35;;
60582;SDS011;46415;47.536;19.066;2022-09-09T05:52:34;2.92;;;2.72;;
60582;SDS011;46415;47.536;19.066;2022-09-09T05:55:37;3.12;;;2.40;;
60582;SDS011;46415;47.536;19.066;2022-09-09T05:58:40;2.45;;;2.30;;
60582;SDS011;46415;47.536;19.066;2022-09-09T06:01:46;2.47;;;2.37;;
60582;SDS011;46415;47.536;19.066;2022-09-09T06:04:52;2.20;;;2.00;;
60582;SDS011;46415;47.536;19.066;2022-09-09T06:07:59;2.53;;;2.40;;
60582;SDS011;46415;47.536;19.066;2022-09-09T06:11:46;2.12;;;2.03;;
60582;SDS011;46415;47.536;19.066;2022-09-09T06:14:38;2.55;;;2.17;;
60582;SDS011;46415;47.536;19.066;2022-09-09T06:17:47;2.15;;;2.03;;
60582;SDS011;46415;47.536;19.066;2022-09-09T06:20:57;2.40;;;2.15;;
60582;SDS011;46415;47.536;19.066;2022-09-09T06:24:03;1.98;;;1.87;;
60582;SDS011;46415;47.536;19.066;2022-09-09T06:27:06;2.17;;;1.98;;
60582;SDS011;46415;47.536;19.066;2022-09-09T06:30:10;1.92;;;1.80;;
60582;SDS011;46415;47.536;19.066;2022-09-09T06:33:13;1.90;;;1.80;;
60582;SDS011;46415;47.536;19.066;2022-09-09T06:36:17;2.35;;;1.70;;
60582;SDS011;46415;47.536;19.066;2022-09-09T06:39:24;1.77;;;1.67;;
60582;SDS011;46415;47.536;19.066;2022-09-09T06:42:29;1.55;;;1.55;;
60582;SDS011;46415;47.536;19.066;2022-09-09T06:45:38;1.73;;;1.23;;
60582;SDS011;46415;47.536;19.066;2022-09-09T06:48:41;12.60;;;5.78;;
60582;SDS011;46415;47.536;19.066;2022-09-09T06:51:45;1.30;;;1.30;;
60582;SDS011;46415;47.536;19.066;2022-09-09T06:54:49;1.95;;;1.85;;
60582;SDS011;46415;47.536;19.066;2022-09-09T06:57:52;2.92;;;1.40;;
60582;SDS011;46415;47.536;19.066;2022-09-09T07:01:05;1.45;;;1.35;;
60582;SDS011;46415;47.536;19.066;2022-09-09T07:04:09;1.80;;;1.70;;
60582;SDS011;46415;47.536;19.066;2022-09-09T07:07:14;1.62;;;1.52;;
60582;SDS011;46415;47.536;19.066;2022-09-09T07:10:18;3.05;;;1.75;;
60582;SDS011;46415;47.536;19.066;2022-09-09T07:13:25;1.60;;;1.50;;
60582;SDS011;46415;47.536;19.066;2022-09-09T07:16:29;2.20;;;2.00;;
60582;SDS011;46415;47.536;19.066;2022-09-09T07:19:34;2.20;;;1.55;;
60582;SDS011;46415;47.536;19.066;2022-09-09T07:22:38;1.80;;;1.70;;
60582;SDS011;46415;47.536;19.066;2022-09-09T07:25:46;1.80;;;1.70;;
60582;SDS011;46415;47.536;19.066;2022-09-09T07:28:50;1.70;;;1.60;;
60582;SDS011;46415;47.536;19.066;2022-09-09T07:31:57;1.60;;;1.40;;
60582;SDS011;46415;47.536;19.066;2022-09-09T07:35:02;1.62;;;1.52;;
60582;SDS011;46415;47.536;19.066;2022-09-09T07:38:05;1.58;;;1.48;;
60582;SDS011;46415;47.536;19.066;2022-09-09T07:41:10;1.50;;;1.40;;
60582;SDS011;46415;47.536;19.066;2022-09-09T07:44:17;1.45;;;1.40;;
60582;SDS011;46415;47.536;19.066;2022-09-09T07:47:24;1.70;;;1.60;;
60582;SDS011;46415;47.536;19.066;2022-09-09T07:50:27;2.22;;;2.12;;
60582;SDS011;46415;47.536;19.066;2022-09-09T07:53:30;1.87;;;1.77;;
60582;SDS011;46415;47.536;19.066;2022-09-09T07:56:33;1.67;;;1.58;;
60582;SDS011;46415;47.536;19.066;2022-09-09T07:59:36;1.58;;;1.48;;
60582;SDS011;46415;47.536;19.066;2022-09-09T08:02:40;1.33;;;1.23;;
60582;SDS011;46415;47.536;19.066;2022-09-09T08:05:44;1.15;;;1.10;;
60582;SDS011;46415;47.536;19.066;2022-09-09T08:08:49;1.50;;;1.40;;
60582;SDS011;46415;47.536;19.066;2022-09-09T08:11:53;1.48;;;1.48;;
60582;SDS011;46415;47.536;19.066;2022-09-09T08:14:58;1.90;;;1.80;;
60582;SDS011;46415;47.536;19.066;2022-09-09T08:18:02;1.23;;;1.17;;
60582;SDS011;46415;47.536;19.066;2022-09-09T08:21:06;1.60;;;1.50;;
60582;SDS011;46415;47.536;19.066;2022-09-09T08:24:09;1.60;;;1.50;;
60582;SDS011;46415;47.536;19.066;2022-09-09T08:27:13;1.23;;;1.23;;
60582;SDS011;46415;47.536;19.066;2022-09-09T08:30:16;1.30;;;1.20;;
60582;SDS011;46415;47.536;19.066;2022-09-09T08:33:19;1.55;;;1.42;;
60582;SDS011;46415;47.536;19.066;2022-09-09T08:36:23;1.23;;;1.23;;
60582;SDS011;46415;47.536;19.066;2022-09-09T08:39:28;1.23;;;1.12;;
60582;SDS011;46415;47.536;19.066;2022-09-09T08:42:34;1.20;;;1.20;;
60582;SDS011;46415;47.536;19.066;2022-09-09T08:52:22;1.70;;;1.60;;
60582;SDS011;46415;47.536;19.066;2022-09-09T08:55:35;1.30;;;1.20;;
60582;SDS011;46415;47.536;19.066;2022-09-09T08:58:54;1.10;;;1.10;;
60582;SDS011;46415;47.536;19.066;2022-09-09T09:02:18;1.20;;;1.20;;
60582;SDS011;46415;47.536;19.066;2022-09-09T09:05:31;1.00;;;1.00;;
60582;SDS011;46415;47.536;19.066;2022-09-09T09:08:44;0.82;;;0.82;;
60582;SDS011;46415;47.536;19.066;2022-09-09T09:11:57;1.23;;;1.10;;
60582;SDS011;46415;47.536;19.066;2022-09-09T09:18:13;1.08;;;0.95;;
60582;SDS011;46415;47.536;19.066;2022-09-09T09:21:21;1.00;;;1.00;;
60582;SDS011;46415;47.536;19.066;2022-09-09T09:24:41;2.60;;;1.12;;
60582;SDS011;46415;47.536;19.066;2022-09-09T09:31:36;1.00;;;1.00;;
60582;SDS011;46415;47.536;19.066;2022-09-09T09:34:39;0.85;;;0.85;;
60582;SDS011;46415;47.536;19.066;2022-09-09T09:37:41;1.12;;;1.10;;
60582;SDS011;46415;47.536;19.066;2022-09-09T09:41:07;0.90;;;0.90;;
60582;SDS011;46415;47.536;19.066;2022-09-09T09:47:26;0.93;;;0.93;;
60582;SDS011;46415;47.536;19.066;2022-09-09T09:50:33;1.27;;;1.17;;
60582;SDS011;46415;47.536;19.066;2022-09-09T09:53:38;1.02;;;1.02;;
60582;SDS011;46415;47.536;19.066;2022-09-09T09:56:41;1.65;;;0.80;;
60582;SDS011;46415;47.536;19.066;2022-09-09T09:59:46;0.80;;;0.80;;
60582;SDS011;46415;47.536;19.066;2022-09-09T10:02:50;0.73;;;0.73;;
60582;SDS011;46415;47.536;19.066;2022-09-09T10:05:55;0.73;;;0.73;;
60582;SDS011;46415;47.536;19.066;2022-09-09T10:08:58;0.80;;;0.80;;
60582;SDS011;46415;47.536;19.066;2022-09-09T10:28:35;1.05;;;0.98;;
60582;SDS011;46415;47.536;19.066;2022-09-09T10:35:30;0.90;;;0.90;;
60582;SDS011;46415;47.536;19.066;2022-09-09T10:38:38;0.85;;;0.82;;
60582;SDS011;46415;47.536;19.066;2022-09-09T10:42:16;0.75;;;0.75;;
60582;SDS011;46415;47.536;19.066;2022-09-09T10:55:33;1.00;;;1.00;;
60582;SDS011;46415;47.536;19.066;2022-09-09T10:58:44;0.90;;;0.90;;
60582;SDS011;46415;47.536;19.066;2022-09-09T11:05:03;1.15;;;0.90;;
60582;SDS011;46415;47.536;19.066;2022-09-09T11:08:18;0.90;;;0.90;;
60582;SDS011;46415;47.536;19.066;2022-09-09T11:11:29;1.00;;;1.00;;
60582;SDS011;46415;47.536;19.066;2022-09-09T11:17:46;0.70;;;0.70;;
60582;SDS011;46415;47.536;19.066;2022-09-09T11:20:54;1.00;;;1.00;;
60582;SDS011;46415;47.536;19.066;2022-09-09T11:24:03;0.85;;;0.75;;
60582;SDS011;46415;47.536;19.066;2022-09-09T11:30:22;0.90;;;0.90;;
60582;SDS011;46415;47.536;19.066;2022-09-09T11:37:21;1.00;;;1.00;;
60582;SDS011;46415;47.536;19.066;2022-09-09T11:40:41;0.90;;;0.90;;
60582;SDS011;46415;47.536;19.066;2022-09-09T11:43:48;0.77;;;0.77;;
60582;SDS011;46415;47.536;19.066;2022-09-09T11:46:54;0.80;;;0.80;;
60582;SDS011;46415;47.536;19.066;2022-09-09T11:53:21;0.68;;;0.62;;
60582;SDS011;46415;47.536;19.066;2022-09-09T11:59:35;0.70;;;0.70;;
60582;SDS011;46415;47.536;19.066;2022-09-09T12:02:47;0.70;;;0.70;;
60582;SDS011;46415;47.536;19.066;2022-09-09T12:05:52;0.90;;;0.90;;
60582;SDS011;46415;47.536;19.066;2022-09-09T12:08:56;1.17;;;1.08;;
60582;SDS011;46415;47.536;19.066;2022-09-09T12:15:26;2.67;;;1.00;;
60582;SDS011;46415;47.536;19.066;2022-09-09T12:21:39;0.90;;;0.90;;
60582;SDS011;46415;47.536;19.066;2022-09-09T12:25:07;0.80;;;0.80;;
60582;SDS011;46415;47.536;19.066;2022-09-09T12:28:36;1.17;;;0.70;;
60582;SDS011;46415;47.536;19.066;2022-09-09T12:31:55;0.62;;;0.62;;
60582;SDS011;46415;47.536;19.066;2022-09-09T12:35:19;0.88;;;0.77;;
60582;SDS011;46415;47.536;19.066;2022-09-09T12:38:35;0.82;;;0.80;;
60582;SDS011;46415;47.536;19.066;2022-09-09T12:41:39;0.93;;;0.93;;
60582;SDS011;46415;47.536;19.066;2022-09-09T12:44:50;0.57;;;0.57;;
60582;SDS011;46415;47.536;19.066;2022-09-09T12:48:08;0.90;;;0.90;;
60582;SDS011;46415;47.536;19.066;2022-09-09T12:51:19;1.12;;;1.02;;
60582;SDS011;46415;47.536;19.066;2022-09-09T12:54:27;0.80;;;0.80;;
60582;SDS011;46415;47.536;19.066;2022-09-09T12:57:33;0.90;;;0.90;;
60582;SDS011;46415;47.536;19.066;2022-09-09T13:00:48;0.80;;;0.80;;
60582;SDS011;46415;47.536;19.066;2022-09-09T13:03:55;0.60;;;0.60;;
60582;SDS011;46415;47.536;19.066;2022-09-09T13:07:07;0.52;;;0.52;;
60582;SDS011;46415;47.536;19.066;2022-09-09T13:10:13;1.33;;;0.93;;
60582;SDS011;46415;47.536;19.066;2022-09-09T13:13:40;0.85;;;0.80;;
60582;SDS011;46415;47.536;19.066;2022-09-09T13:16:53;0.90;;;0.90;;
60582;SDS011;46415;47.536;19.066;2022-09-09T13:20:01;0.95;;;0.80;;
60582;SDS011;46415;47.536;19.066;2022-09-09T13:23:05;0.70;;;0.70;;
60582;SDS011;46415;47.536;19.066;2022-09-09T13:26:24;0.77;;;0.73;;
60582;SDS011;46415;47.536;19.066;2022-09-09T13:29:29;1.20;;;0.70;;
60582;SDS011;46415;47.536;19.066;2022-09-09T13:32:33;0.70;;;0.70;;
60582;SDS011;46415;47.536;19.066;2022-09-09T13:35:44;0.80;;;0.80;;
60582;SDS011;46415;47.536;19.066;2022-09-09T13:39:02;1.20;;;1.10;;
60582;SDS011;46415;47.536;19.066;2022-09-09T13:42:19;0.98;;;0.98;;
60582;SDS011;46415;47.536;19.066;2022-09-09T13:45:27;0.75;;;0.75;;
60582;SDS011;46415;47.536;19.066;2022-09-09T13:48:30;0.68;;;0.68;;
60582;SDS011;46415;47.536;19.066;2022-09-09T13:54:40;0.68;;;0.68;;
60582;SDS011;46415;47.536;19.066;2022-09-09T13:58:00;0.60;;;0.60;;
60582;SDS011;46415;47.536;19.066;2022-09-09T14:01:04;0.68;;;0.68;;
60582;SDS011;46415;47.536;19.066;2022-09-09T14:04:08;0.60;;;0.60;;
60582;SDS011;46415;47.536;19.066;2022-09-09T14:07:11;0.90;;;0.90;;
60582;SDS011;46415;47.536;19.066;2022-09-09T14:10:16;0.80;;;0.80;;
60582;SDS011;46415;47.536;19.066;2022-09-09T14:13:19;0.70;;;0.70;;
60582;SDS011;46415;47.536;19.066;2022-09-09T14:16:23;0.80;;;0.80;;
60582;SDS011;46415;47.536;19.066;2022-09-09T14:19:26;0.77;;;0.77;;
60582;SDS011;46415;47.536;19.066;2022-09-09T14:22:28;0.60;;;0.60;;
60582;SDS011;46415;47.536;19.066;2022-09-09T14:25:31;0.60;;;0.60;;
60582;SDS011;46415;47.536;19.066;2022-09-09T14:28:35;0.70;;;0.70;;
60582;SDS011;46415;47.536;19.066;2022-09-09T14:31:55;0.70;;;0.70;;
60582;SDS011;46415;47.536;19.066;2022-09-09T14:34:58;1.27;;;1.00;;
60582;SDS011;46415;47.536;19.066;2022-09-09T14:38:01;0.80;;;0.70;;
60582;SDS011;46415;47.536;19.066;2022-09-09T14:41:06;0.90;;;0.88;;
60582;SDS011;46415;47.536;19.066;2022-09-09T14:44:09;0.65;;;0.60;;
60582;SDS011;46415;47.536;19.066;2022-09-09T14:47:12;0.60;;;0.60;;
60582;SDS011;46415;47.536;19.066;2022-09-09T14:50:15;0.70;;;0.70;;
60582;SDS011;46415;47.536;19.066;2022-09-09T14:53:18;2.08;;;0.88;;
60582;SDS011;46415;47.536;19.066;2022-09-09T14:56:21;0.65;;;0.65;;
60582;SDS011;46415;47.536;19.066;2022-09-09T14:59:26;0.70;;;0.70;;
60582;SDS011;46415;47.536;19.066;2022-09-09T15:02:28;0.47;;;0.47;;
60582;SDS011;46415;47.536;19.066;2022-09-09T15:05:32;0.88;;;0.88;;
60582;SDS011;46415;47.536;19.066;2022-09-09T15:08:39;0.60;;;0.60;;
60582;SDS011;46415;47.536;19.066;2022-09-09T15:11:44;0.70;;;0.70;;
60582;SDS011;46415;47.536;19.066;2022-09-09T15:14:47;0.80;;;0.70;;
60582;SDS011;46415;47.536;19.066;2022-09-09T15:17:50;0.60;;;0.60;;
60582;SDS011;46415;47.536;19.066;2022-09-09T15:20:53;0.60;;;0.60;;
60582;SDS011;46415;47.536;19.066;2022-09-09T15:23:56;2.92;;;0.68;;
60582;SDS011;46415;47.536;19.066;2022-09-09T15:26:59;0.70;;;0.70;;
60582;SDS011;46415;47.536;19.066;2022-09-09T15:30:03;0.70;;;0.70;;
60582;SDS011;46415;47.536;19.066;2022-09-09T15:33:09;0.55;;;0.55;;
60582;SDS011;46415;47.536;19.066;2022-09-09T15:39:18;0.40;;;0.40;;
60582;SDS011;46415;47.536;19.066;2022-09-09T15:42:21;1.23;;;0.62;;
60582;SDS011;46415;47.536;19.066;2022-09-09T15:45:26;0.80;;;0.80;;
60582;SDS011;46415;47.536;19.066;2022-09-09T15:48:33;0.60;;;0.60;;
60582;SDS011;46415;47.536;19.066;2022-09-09T15:51:36;0.60;;;0.60;;
60582;SDS011;46415;47.536;19.066;2022-09-09T15:54:46;0.40;;;0.40;;
60582;SDS011;46415;47.536;19.066;2022-09-09T15:57:48;0.60;;;0.60;;
60582;SDS011;46415;47.536;19.066;2022-09-09T16:00:51;0.68;;;0.68;;
60582;SDS011;46415;47.536;19.066;2022-09-09T16:03:54;0.65;;;0.65;;
60582;SDS011;46415;47.536;19.066;2022-09-09T16:06:58;0.62;;;0.62;;
60582;SDS011;46415;47.536;19.066;2022-09-09T16:10:06;0.55;;;0.55;;
60582;SDS011;46415;47.536;19.066;2022-09-09T16:13:10;0.52;;;0.52;;
60582;SDS011;46415;47.536;19.066;2022-09-09T16:16:16;0.57;;;0.57;;
60582;SDS011;46415;47.536;19.066;2022-09-09T16:19:21;0.60;;;0.60;;
60582;SDS011;46415;47.536;19.066;2022-09-09T16:22:24;0.52;;;0.52;;
60582;SDS011;46415;47.536;19.066;2022-09-09T16:25:27;0.50;;;0.50;;
60582;SDS011;46415;47.536;19.066;2022-09-09T16:28:30;0.52;;;0.52;;
60582;SDS011;46415;47.536;19.066;2022-09-09T16:31:33;0.73;;;0.73;;
60582;SDS011;46415;47.536;19.066;2022-09-09T16:34:36;0.60;;;0.60;;
60582;SDS011;46415;47.536;19.066;2022-09-09T16:37:39;0.52;;;0.52;;
60582;SDS011;46415;47.536;19.066;2022-09-09T16:40:42;0.82;;;0.82;;
60582;SDS011;46415;47.536;19.066;2022-09-09T16:43:44;0.80;;;0.80;;
60582;SDS011;46415;47.536;19.066;2022-09-09T16:46:48;0.77;;;0.77;;
60582;SDS011;46415;47.536;19.066;2022-09-09T16:50:00;0.90;;;0.90;;
60582;SDS011;46415;47.536;19.066;2022-09-09T16:53:03;1.00;;;0.77;;
60582;SDS011;46415;47.536;19.066;2022-09-09T16:56:09;0.75;;;0.75;;
60582;SDS011;46415;47.536;19.066;2022-09-09T16:59:15;1.27;;;1.08;;
60582;SDS011;46415;47.536;19.066;2022-09-09T17:02:21;1.42;;;0.90;;
60582;SDS011;46415;47.536;19.066;2022-09-09T17:05:24;0.90;;;0.90;;
60582;SDS011;46415;47.536;19.066;2022-09-09T17:08:30;0.70;;;0.70;;
60582;SDS011;46415;47.536;19.066;2022-09-09T17:11:33;1.15;;;0.80;;
60582;SDS011;46415;47.536;19.066;2022-09-09T17:14:37;1.00;;;1.00;;
60582;SDS011;46415;47.536;19.066;2022-09-09T17:17:40;1.12;;;1.00;;
60582;SDS011;46415;47.536;19.066;2022-09-09T17:20:47;1.30;;;1.12;;
60582;SDS011;46415;47.536;19.066;2022-09-09T17:23:50;0.90;;;0.90;;
60582;SDS011;46415;47.536;19.066;2022-09-09T17:26:53;0.90;;;0.85;;
60582;SDS011;46415;47.536;19.066;2022-09-09T17:29:57;1.20;;;1.05;;
60582;SDS011;46415;47.536;19.066;2022-09-09T17:33:00;0.95;;;0.88;;
60582;SDS011;46415;47.536;19.066;2022-09-09T17:36:22;1.33;;;1.23;;
60582;SDS011;46415;47.536;19.066;2022-09-09T17:39:27;1.00;;;1.00;;
60582;SDS011;46415;47.536;19.066;2022-09-09T17:42:30;1.08;;;1.05;;
60582;SDS011;46415;47.536;19.066;2022-09-09T17:45:33;2.28;;;1.42;;
60582;SDS011;46415;47.536;19.066;2022-09-09T17:48:36;1.40;;;1.30;;
60582;SDS011;46415;47.536;19.066;2022-09-09T17:51:40;1.67;;;1.37;;
60582;SDS011;46415;47.536;19.066;2022-09-09T17:54:44;1.40;;;1.40;;
60582;SDS011;46415;47.536;19.066;2022-09-09T17:57:46;1.55;;;1.45;;
60582;SDS011;46415;47.536;19.066;2022-09-09T18:00:49;1.67;;;1.58;;
60582;SDS011;46415;47.536;19.066;2022-09-09T18:03:53;1.58;;;1.48;;
60582;SDS011;46415;47.536;19.066;2022-09-09T18:06:58;1.42;;;1.33;;
60582;SDS011;46415;47.536;19.066;2022-09-09T18:10:01;1.80;;;1.70;;
60582;SDS011;46415;47.536;19.066;2022-09-09T18:13:04;1.50;;;1.40;;
60582;SDS011;46415;47.536;19.066;2022-09-09T18:16:09;1.67;;;1.58;;
60582;SDS011;46415;47.536;19.066;2022-09-09T18:19:13;1.42;;;1.33;;
60582;SDS011;46415;47.536;19.066;2022-09-09T18:22:17;1.42;;;1.35;;
60582;SDS011;46415;47.536;19.066;2022-09-09T18:25:21;2.25;;;1.50;;
60582;SDS011;46415;47.536;19.066;2022-09-09T18:28:25;1.98;;;1.70;;
60582;SDS011;46415;47.536;19.066;2022-09-09T18:31:28;2.03;;;1.30;;
60582;SDS011;46415;47.536;19.066;2022-09-09T18:34:32;1.75;;;1.58;;
60582;SDS011;46415;47.536;19.066;2022-09-09T18:37:34;1.05;;;1.05;;
60582;SDS011;46415;47.536;19.066;2022-09-09T18:40:40;1.20;;;1.20;;
60582;SDS011;46415;47.536;19.066;2022-09-09T18:43:43;1.70;;;1.60;;
60582;SDS011;46415;47.536;19.066;2022-09-09T18:46:47;1.75;;;1.35;;
60582;SDS011;46415;47.536;19.066;2022-09-09T18:49:50;1.42;;;1.27;;
60582;SDS011;46415;47.536;19.066;2022-09-09T18:52:53;1.40;;;1.30;;
60582;SDS011;46415;47.536;19.066;2022-09-09T18:56:02;1.50;;;1.40;;
60582;SDS011;46415;47.536;19.066;2022-09-09T18:59:11;1.20;;;1.10;;
60582;SDS011;46415;47.536;19.066;2022-09-09T19:02:15;2.08;;;1.20;;
60582;SDS011;46415;47.536;19.066;2022-09-09T19:05:17;2.45;;;1.37;;
60582;SDS011;46415;47.536;19.066;2022-09-09T19:08:20;1.48;;;1.37;;
60582;SDS011;46415;47.536;19.066;2022-09-09T19:11:24;1.67;;;1.58;;
60582;SDS011;46415;47.536;19.066;2022-09-09T19:14:28;1.50;;;1.40;;
60582;SDS011;46415;47.536;19.066;2022-09-09T19:17:31;1.30;;;1.15;;
60582;SDS011;46415;47.536;19.066;2022-09-09T19:20:35;1.42;;;1.33;;
60582;SDS011;46415;47.536;19.066;2022-09-09T19:23:39;1.85;;;1.50;;
60582;SDS011;46415;47.536;19.066;2022-09-09T19:26:47;1.70;;;1.60;;
60582;SDS011;46415;47.536;19.066;2022-09-09T19:32:58;1.67;;;1.58;;
60582;SDS011;46415;47.536;19.066;2022-09-09T19:36:02;2.25;;;1.70;;
60582;SDS011;46415;47.536;19.066;2022-09-09T19:39:08;2.33;;;1.85;;
60582;SDS011;46415;47.536;19.066;2022-09-09T19:42:11;2.62;;;2.00;;
60582;SDS011;46415;47.536;19.066;2022-09-09T19:45:14;2.15;;;1.95;;
60582;SDS011;46415;47.536;19.066;2022-09-09T19:48:17;3.28;;;2.12;;
60582;SDS011;46415;47.536;19.066;2022-09-09T19:51:22;3.00;;;2.25;;
60582;SDS011;46415;47.536;19.066;2022-09-09T19:54:27;5.03;;;4.12;;
60582;SDS011;46415;47.536;19.066;2022-09-09T19:57:29;2.78;;;2.53;;
60582;SDS011;46415;47.536;19.066;2022-09-09T20:00:32;4.07;;;3.78;;
60582;SDS011;46415;47.536;19.066;2022-09-09T20:03:42;4.30;;;4.00;;
60582;SDS011;46415;47.536;19.066;2022-09-09T20:06:46;4.80;;;4.40;;
60582;SDS011;46415;47.536;19.066;2022-09-09T20:09:51;5.15;;;4.65;;
60582;SDS011;46415;47.536;19.066;2022-09-09T20:12:55;4.43;;;4.03;;
60582;SDS011;46415;47.536;19.066;2022-09-09T20:15:58;4.00;;;3.70;;
60582;SDS011;46415;47.536;19.066;2022-09-09T20:19:03;4.60;;;4.20;;
60582;SDS011;46415;47.536;19.066;2022-09-09T20:22:08;4.22;;;3.80;;
60582;SDS011;46415;47.536;19.066;2022-09-09T20:25:11;3.97;;;3.67;;